createdAt,value
2022-09-03T00:01:29.354Z,94441.56
2022-09-03T00:03:59.946Z,94425.63
2022-09-03T00:06:34.983Z,94414.84
2022-09-03T00:09:09.410Z,94422.25
2022-09-03T00:11:45.486Z,94412.97
2022-09-03T00:14:25.664Z,94403.28
2022-09-03T00:17:00.803Z,94419.13
2022-09-03T00:19:33.726Z,94421.22
2022-09-03T00:22:07.435Z,94435.59
2022-09-03T00:24:38.459Z,94424.13
2022-09-03T00:27:14.083Z,94424.44
2022-09-03T00:29:51.898Z,94434.06
2022-09-03T00:32:27.150Z,94417.47
2022-09-03T00:35:00.994Z,94384.34
2022-09-03T00:37:28.822Z,94413.00
2022-09-03T00:40:00.946Z,94404.47
2022-09-03T00:42:53.977Z,94426.25
2022-09-03T00:45:35.960Z,94415.38
2022-09-03T00:48:28.095Z,94420.34
2022-09-03T00:51:00.343Z,94421.84
2022-09-03T00:53:45.709Z,94436.56
2022-09-03T00:56:35.180Z,94431.19
2022-09-03T00:59:42.444Z,94427.16
2022-09-03T01:02:26.910Z,94433.41
2022-09-03T01:05:08.154Z,94438.59
2022-09-03T01:07:59.150Z,94450.91
2022-09-03T01:11:01.642Z,94442.41
2022-09-03T01:13:41.144Z,94439.81
2022-09-03T01:16:35.755Z,94410.66
2022-09-03T01:19:05.545Z,94436.78
2022-09-03T01:21:46.779Z,94441.03
2022-09-03T01:24:35.254Z,94426.59
2022-09-03T01:27:40.637Z,94390.09
2022-09-03T01:30:20.465Z,94425.38
2022-09-03T01:33:11.666Z,94429.16
2022-09-03T01:35:46.623Z,94443.59
2022-09-03T01:38:52.189Z,94437.03
2022-09-03T01:41:58.902Z,94431.16
2022-09-03T01:44:44.852Z,94423.03
2022-09-03T01:47:22.377Z,94415.00
2022-09-03T01:50:17.664Z,94409.06
2022-09-03T01:53:00.422Z,94370.28
2022-09-03T01:55:55.078Z,94402.06
2022-09-03T01:58:28.368Z,94425.59
2022-09-03T02:01:00.625Z,94423.84
2022-09-03T02:03:36.265Z,94417.25
2022-09-03T02:06:09.565Z,94415.63
2022-09-03T02:08:36.722Z,94414.25
2022-09-03T02:11:08.854Z,94401.19
2022-09-03T02:13:43.911Z,94400.66
2022-09-03T02:16:14.844Z,94395.03
2022-09-03T02:18:46.542Z,94388.03
2022-09-03T02:21:20.426Z,94357.66
2022-09-03T02:23:48.399Z,94377.69
2022-09-03T02:26:19.889Z,94383.44
2022-09-03T02:28:47.036Z,94383.44
2022-09-03T02:31:14.313Z,94381.75
2022-09-03T02:33:44.681Z,94401.34
2022-09-03T02:36:13.982Z,94404.38
2022-09-03T02:38:45.280Z,94432.09
2022-09-03T02:41:15.139Z,94430.56
2022-09-03T02:43:45.186Z,94412.19
2022-09-03T02:46:21.629Z,94416.13
2022-09-03T02:48:49.189Z,94433.56
2022-09-03T02:51:16.230Z,94430.94
2022-09-03T02:53:43.693Z,94434.50
2022-09-03T02:56:11.442Z,94426.97
2022-09-03T02:58:38.344Z,94421.00
2022-09-03T03:01:05.960Z,94425.69
2022-09-03T03:03:33.064Z,94425.28
2022-09-03T03:06:02.959Z,94421.69
2022-09-03T03:08:30.430Z,94403.63
2022-09-03T03:11:00.785Z,94403.09
2022-09-03T03:13:28.714Z,94411.91
2022-09-03T03:16:06.431Z,94417.47
2022-09-03T03:18:34.636Z,94419.50
2022-09-03T03:21:06.805Z,94421.03
2022-09-03T03:23:35.009Z,94404.03
2022-09-03T03:26:11.157Z,94409.50
2022-09-03T03:28:38.143Z,94400.56
2022-09-03T03:31:16.609Z,94419.50
2022-09-03T03:33:44.026Z,94419.59
2022-09-03T03:36:13.843Z,94409.88
2022-09-03T03:38:41.918Z,94411.44
2022-09-03T03:41:15.862Z,94431.97
2022-09-03T03:43:43.204Z,94438.94
2022-09-03T03:46:10.813Z,94444.63
2022-09-03T03:48:38.649Z,94435.94
2022-09-03T03:51:08.483Z,94446.72
2022-09-03T03:53:37.623Z,94449.84
2022-09-03T03:56:09.891Z,94443.28
2022-09-03T03:58:37.556Z,94435.97
2022-09-03T04:01:12.891Z,94453.38
2022-09-03T04:03:39.849Z,94437.16
2022-09-03T04:06:08.070Z,94446.81
2022-09-03T04:08:39.746Z,94437.88
2022-09-03T04:11:08.694Z,94430.50
2022-09-03T04:13:41.019Z,94418.75
2022-09-03T04:16:12.424Z,94427.78
2022-09-03T04:18:40.261Z,94440.25
2022-09-03T04:21:18.624Z,94433.22
2022-09-03T04:23:47.136Z,94423.91
2022-09-03T04:26:17.155Z,94425.44
2022-09-03T04:28:44.782Z,94411.38
2022-09-03T04:31:14.157Z,94417.31
2022-09-03T04:33:42.412Z,94437.50
2022-09-03T04:36:17.514Z,94433.22
2022-09-03T04:38:46.930Z,94408.50
2022-09-03T04:41:18.875Z,94420.19
2022-09-03T04:43:46.163Z,94418.97
2022-09-03T04:46:18.777Z,94411.50
2022-09-03T04:48:48.882Z,94421.38
2022-09-03T04:51:17.756Z,94433.63
2022-09-03T04:53:46.929Z,94437.88
2022-09-03T04:56:35.020Z,94447.63
2022-09-03T04:59:04.578Z,94452.72
2022-09-03T05:01:34.385Z,94447.66
2022-09-03T05:04:01.864Z,94441.03
2022-09-03T05:06:30.286Z,94451.53
2022-09-03T05:08:57.810Z,94450.75
2022-09-03T05:11:25.858Z,94469.03
2022-09-03T05:13:55.214Z,94463.91
2022-09-03T05:16:23.759Z,94472.13
2022-09-03T05:18:55.379Z,94444.16
2022-09-03T05:21:22.910Z,94441.84
2022-09-03T05:23:51.165Z,94463.91
2022-09-03T05:26:21.301Z,94442.19
2022-09-03T05:28:48.922Z,94461.09
2022-09-03T05:31:18.269Z,94464.94
2022-09-03T05:33:50.294Z,94455.66
2022-09-03T05:36:19.356Z,94433.84
2022-09-03T05:38:46.168Z,94463.84
2022-09-03T05:41:14.846Z,94464.38
2022-09-03T05:43:42.634Z,94476.28
2022-09-03T05:46:12.496Z,94505.88
2022-09-03T05:48:40.510Z,94502.91
2022-09-03T05:51:16.494Z,94506.59
2022-09-03T05:53:48.303Z,94465.81
2022-09-03T05:56:19.296Z,94501.03
2022-09-03T05:58:52.701Z,94524.31
2022-09-03T06:01:21.450Z,94516.81
2022-09-03T06:03:54.437Z,94523.13
2022-09-03T06:06:28.050Z,94493.50
2022-09-03T06:08:58.214Z,94509.56
2022-09-03T06:11:28.861Z,94489.25
2022-09-03T06:13:56.686Z,94513.31
2022-09-03T06:16:30.567Z,94524.09
2022-09-03T06:19:02.460Z,94514.84
2022-09-03T06:21:29.553Z,94512.25
2022-09-03T06:23:59.587Z,94518.59
2022-09-03T06:26:31.005Z,94523.16
2022-09-03T06:28:58.106Z,94515.09
2022-09-03T06:31:25.937Z,94521.53
2022-09-03T06:33:55.180Z,94530.13
2022-09-03T06:36:24.181Z,94535.59
2022-09-03T06:38:56.781Z,94526.66
2022-09-03T06:41:29.400Z,94503.41
2022-09-03T06:44:03.396Z,94534.47
2022-09-03T06:46:35.224Z,94569.09
2022-09-03T06:49:02.771Z,94551.25
2022-09-03T06:51:31.255Z,94549.09
2022-09-03T06:54:04.001Z,94560.59
2022-09-03T06:56:37.382Z,94554.19
2022-09-03T06:59:09.468Z,94534.22
2022-09-03T07:01:39.492Z,94550.47
2022-09-03T07:04:08.434Z,94550.13
2022-09-03T07:06:40.366Z,94553.13
2022-09-03T07:09:08.417Z,94534.78
2022-09-03T07:11:36.650Z,94543.19
2022-09-03T07:14:05.537Z,94547.63
2022-09-03T07:16:37.290Z,94542.69
2022-09-03T07:19:06.969Z,94554.16
2022-09-03T07:21:36.907Z,94548.06
2022-09-03T07:24:05.723Z,94567.34
2022-09-03T07:26:38.344Z,94527.78
2022-09-03T07:29:06.063Z,94533.09
2022-09-03T07:31:36.199Z,94546.25
2022-09-03T07:34:10.303Z,94533.13
2022-09-03T07:36:41.166Z,94536.59
2022-09-03T07:39:09.246Z,94534.75
2022-09-03T07:41:36.037Z,94543.56
2022-09-03T07:44:05.766Z,94523.88
2022-09-03T07:46:36.089Z,94557.97
2022-09-03T07:49:03.913Z,94547.91
2022-09-03T07:51:34.570Z,94558.75
2022-09-03T07:54:03.999Z,94556.44
2022-09-03T07:56:35.230Z,94572.38
2022-09-03T07:59:03.093Z,94539.16
2022-09-03T08:01:34.212Z,94567.88
2022-09-03T08:04:02.876Z,94540.34
2022-09-03T08:06:31.328Z,94577.88
2022-09-03T08:09:05.485Z,94595.72
2022-09-03T08:11:40.942Z,94581.34
2022-09-03T08:14:10.938Z,94608.66
2022-09-03T08:16:47.966Z,94570.72
2022-09-03T08:19:15.694Z,94562.19
2022-09-03T08:21:42.751Z,94587.28
2022-09-03T08:24:11.201Z,94588.16
2022-09-03T08:26:50.682Z,94580.72
2022-09-03T08:29:18.282Z,94555.44
2022-09-03T08:31:45.129Z,94588.03
2022-09-03T08:34:13.220Z,94595.75
2022-09-03T08:36:41.666Z,94573.69
2022-09-03T08:39:10.700Z,94600.38
2022-09-03T08:42:03.641Z,94596.75
2022-09-03T08:44:57.095Z,94588.03
2022-09-03T08:47:30.295Z,94576.63
2022-09-03T08:50:25.242Z,94580.91
2022-09-03T08:53:06.659Z,94562.50
2022-09-03T08:55:44.775Z,94586.44
2022-09-03T08:58:25.823Z,94560.44
2022-09-03T09:01:01.482Z,94611.38
2022-09-03T09:03:28.379Z,94553.44
2022-09-03T09:06:08.071Z,94574.41
2022-09-03T09:08:49.748Z,94609.53
2022-09-03T09:11:36.053Z,94568.03
2022-09-03T09:14:44.414Z,94600.34
2022-09-03T09:17:46.924Z,94574.09
2022-09-03T09:20:29.065Z,94576.13
2022-09-03T09:23:01.771Z,94588.84
2022-09-03T09:25:30.480Z,94599.75
2022-09-03T09:28:16.898Z,94557.56
2022-09-03T09:30:47.702Z,94546.31
2022-09-03T09:33:16.027Z,94560.84
2022-09-03T09:35:44.985Z,94556.63
2022-09-03T09:38:12.817Z,94576.97
2022-09-03T09:40:45.620Z,94579.75
2022-09-03T09:43:20.633Z,94539.91
2022-09-03T09:45:52.595Z,94574.19
2022-09-03T09:48:34.489Z,94568.38
2022-09-03T09:51:11.725Z,94571.69
2022-09-03T09:53:42.429Z,94556.47
2022-09-03T09:56:09.970Z,94565.97
2022-09-03T09:58:36.733Z,94591.72
2022-09-03T10:01:15.167Z,94559.34
2022-09-03T10:03:55.384Z,94546.03
2022-09-03T10:06:50.000Z,94549.72
2022-09-03T10:09:23.422Z,94534.47
2022-09-03T10:12:26.134Z,94535.44
2022-09-03T10:15:07.975Z,94519.75
2022-09-03T10:17:48.541Z,94535.69
2022-09-03T10:20:44.497Z,94555.09
2022-09-03T10:23:19.120Z,94552.47
2022-09-03T10:26:15.221Z,94570.16
2022-09-03T10:28:42.985Z,94597.50
2022-09-03T10:31:18.782Z,94581.28
2022-09-03T10:33:51.772Z,94587.75
2022-09-03T10:36:25.955Z,94606.28
2022-09-03T10:39:04.230Z,94565.53
2022-09-03T10:41:47.531Z,94576.72
2022-09-03T10:44:35.717Z,94546.94
2022-09-03T10:47:12.825Z,94559.25
2022-09-03T10:50:02.623Z,94558.22
2022-09-03T10:52:52.797Z,94580.50
2022-09-03T10:55:43.074Z,94573.31
2022-09-03T10:58:11.294Z,94565.00
2022-09-03T11:00:47.054Z,94570.00
2022-09-03T11:03:49.066Z,94565.41
2022-09-03T11:06:24.872Z,94544.53
2022-09-03T11:08:54.992Z,94583.59
2022-09-03T11:11:32.966Z,94551.69
2022-09-03T11:14:10.481Z,94539.84
2022-09-03T11:16:54.151Z,94534.13
2022-09-03T11:19:32.166Z,94538.38
2022-09-03T11:21:59.278Z,94525.41
2022-09-03T11:24:33.024Z,94511.34
2022-09-03T11:27:15.223Z,94527.47
2022-09-03T11:30:36.910Z,94536.56
2022-09-03T11:33:10.340Z,94529.69
2022-09-03T11:35:37.038Z,94525.09
2022-09-03T11:38:23.697Z,94508.13
2022-09-03T11:41:00.082Z,94511.19
2022-09-03T11:43:29.864Z,94525.19
2022-09-03T11:46:15.252Z,94497.81
2022-09-03T11:48:44.167Z,94505.81
2022-09-03T11:51:38.433Z,94540.75
2022-09-03T11:54:24.009Z,94512.66
2022-09-03T11:56:52.033Z,94482.25
2022-09-03T11:59:26.741Z,94536.94
2022-09-03T12:02:01.848Z,94532.22
2022-09-03T12:05:07.419Z,94483.97
2022-09-03T12:08:09.050Z,94510.88
2022-09-03T12:11:02.129Z,94492.38
2022-09-03T12:13:47.499Z,94482.09
2022-09-03T12:16:38.653Z,94449.16
2022-09-03T12:19:17.206Z,94490.59
2022-09-03T12:21:49.418Z,94463.69
2022-09-03T12:24:17.283Z,94476.84
2022-09-03T12:26:44.259Z,94465.56
2022-09-03T12:29:27.708Z,94489.31
2022-09-03T12:31:59.023Z,94484.38
2022-09-03T12:34:27.448Z,94485.97
2022-09-03T12:36:54.976Z,94486.44
2022-09-03T12:42:19.674Z,94505.22
2022-09-03T12:44:46.514Z,94490.41
2022-09-03T12:50:08.443Z,94500.34
2022-09-03T12:53:03.583Z,94469.94
2022-09-03T12:55:45.751Z,94447.63
2022-09-03T12:58:21.658Z,94447.41
2022-09-03T13:01:04.147Z,94441.16
2022-09-03T13:03:54.323Z,94428.63
2022-09-03T13:06:25.029Z,94415.28
2022-09-03T13:09:08.252Z,94456.03
2022-09-03T13:11:39.322Z,94430.13
2022-09-03T13:14:12.767Z,94437.03
2022-09-03T13:16:45.788Z,94403.66
2022-09-03T13:19:43.330Z,94412.88
2022-09-03T13:22:21.908Z,94401.59
2022-09-03T13:25:16.345Z,94392.28
2022-09-03T13:28:10.067Z,94407.94
2022-09-03T13:31:03.732Z,94408.84
2022-09-03T13:33:50.015Z,94398.75
2022-09-03T13:36:21.632Z,94425.72
2022-09-03T13:39:06.449Z,94447.50
2022-09-03T13:41:43.573Z,94471.59
2022-09-03T13:44:31.226Z,94459.03
2022-09-03T13:47:02.915Z,94441.47
2022-09-03T13:50:06.934Z,94454.66
2022-09-03T13:52:57.300Z,94404.97
2022-09-03T13:55:35.812Z,94429.47
2022-09-03T13:58:11.233Z,94418.28
2022-09-03T14:00:51.239Z,94411.63
2022-09-03T14:03:44.626Z,94431.13
2022-09-03T14:06:50.875Z,94408.38
2022-09-03T14:10:19.314Z,94420.63
2022-09-03T14:12:54.546Z,94446.50
2022-09-03T14:15:31.253Z,94429.06
2022-09-03T14:18:16.202Z,94444.78
2022-09-03T14:20:56.589Z,94468.09
2022-09-03T14:23:23.308Z,94454.25
2022-09-03T14:25:57.718Z,94484.47
2022-09-03T14:28:34.452Z,94456.63
2022-09-03T14:31:18.839Z,94448.72
2022-09-03T14:34:04.447Z,94467.72
2022-09-03T14:36:53.914Z,94463.03
2022-09-03T14:39:33.260Z,94450.91
2022-09-03T14:42:04.242Z,94465.16
2022-09-03T14:45:16.034Z,94470.25
2022-09-03T14:47:46.071Z,94504.44
2022-09-03T14:50:40.583Z,94550.88
2022-09-03T14:53:33.823Z,94544.56
2022-09-03T14:56:22.419Z,94599.59
2022-09-03T14:59:08.045Z,94592.88
2022-09-03T15:01:39.182Z,94656.22
2022-09-03T15:04:28.789Z,94627.03
2022-09-03T15:07:39.463Z,94655.09
2022-09-03T15:10:19.366Z,94690.94
2022-09-03T15:12:58.207Z,94718.63
2022-09-03T15:15:38.334Z,94696.47
2022-09-03T15:18:29.634Z,94728.69
2022-09-03T15:21:39.711Z,94705.75
2022-09-03T15:24:18.549Z,94728.94
2022-09-03T15:27:16.385Z,94722.63
2022-09-03T15:29:52.087Z,94729.09
2022-09-03T15:32:21.606Z,94709.97
2022-09-03T15:35:08.763Z,94732.94
2022-09-03T15:37:49.192Z,94708.81
2022-09-03T15:40:38.970Z,94716.03
2022-09-03T15:43:22.708Z,94682.47
2022-09-03T15:45:49.545Z,94682.22
2022-09-03T15:48:59.577Z,94697.72
2022-09-03T15:51:26.281Z,94696.06
2022-09-03T15:54:03.597Z,94714.31
2022-09-03T15:56:53.187Z,94700.75
2022-09-03T15:59:40.661Z,94666.81
2022-09-03T16:02:21.973Z,94698.19
2022-09-03T16:05:13.929Z,94690.09
2022-09-03T16:08:13.111Z,94712.47
2022-09-03T16:11:18.379Z,94725.47
2022-09-03T16:14:21.923Z,94709.88
2022-09-03T16:17:07.128Z,94681.25
2022-09-03T16:20:14.575Z,94703.66
2022-09-03T16:22:51.437Z,94695.31
2022-09-03T16:25:24.674Z,94668.81
2022-09-03T16:28:14.191Z,94683.81
2022-09-03T16:31:30.372Z,94666.66
2022-09-03T16:34:06.184Z,94647.94
2022-09-03T16:36:51.066Z,94631.50
2022-09-03T16:39:36.209Z,94653.72
2022-09-03T16:42:14.678Z,94641.09
2022-09-03T16:44:54.387Z,94633.72
2022-09-03T16:47:41.375Z,94609.94
2022-09-03T16:50:41.813Z,94648.47
2022-09-03T16:53:14.629Z,94637.59
2022-09-03T16:56:24.367Z,94649.00
2022-09-03T16:59:03.948Z,94666.88
2022-09-03T17:01:37.299Z,94630.75
2022-09-03T17:04:30.214Z,94653.19
2022-09-03T17:07:09.360Z,94640.09
2022-09-03T17:09:57.150Z,94654.84
2022-09-03T17:12:46.017Z,94626.00
2022-09-03T17:15:51.110Z,94631.94
2022-09-03T17:18:20.956Z,94654.47
2022-09-03T17:20:53.872Z,94634.47
2022-09-03T17:23:39.627Z,94643.84
2022-09-03T17:26:22.009Z,94598.13
2022-09-03T17:29:13.058Z,94633.22
2022-09-03T17:32:03.132Z,94619.19
2022-09-03T17:35:19.792Z,94627.50
2022-09-03T17:38:09.278Z,94632.44
2022-09-03T17:40:52.973Z,94644.56
2022-09-03T17:43:33.631Z,94619.78
2022-09-03T17:46:13.327Z,94626.94
2022-09-03T17:48:46.248Z,94642.56
2022-09-03T17:51:37.012Z,94621.47
2022-09-03T17:54:03.741Z,94630.69
2022-09-03T17:56:40.074Z,94635.50
2022-09-03T17:59:35.029Z,94610.75
2022-09-03T18:02:10.285Z,94603.97
2022-09-03T18:04:58.424Z,94638.19
2022-09-03T18:07:33.482Z,94627.47
2022-09-03T18:10:21.746Z,94630.44
2022-09-03T18:13:03.082Z,94625.88
2022-09-03T18:15:51.688Z,94632.09
2022-09-03T18:18:30.145Z,94647.97
2022-09-03T18:21:29.313Z,94657.47
2022-09-03T18:24:51.390Z,94643.78
2022-09-03T18:27:38.042Z,94642.06
2022-09-03T18:30:29.991Z,94635.88
2022-09-03T18:33:15.823Z,94651.22
2022-09-03T18:36:05.489Z,94630.09
2022-09-03T18:38:54.474Z,94649.53
2022-09-03T18:41:43.029Z,94683.31
2022-09-03T18:44:31.441Z,94654.28
2022-09-03T18:51:13.434Z,94687.63
2022-09-03T18:54:17.615Z,94689.97
2022-09-03T18:57:09.143Z,94686.03
2022-09-03T19:00:19.078Z,94681.13
2022-09-03T19:03:19.739Z,94689.91
2022-09-03T19:06:34.717Z,94664.97
2022-09-03T19:09:35.592Z,94678.75
2022-09-03T19:12:39.372Z,94689.69
2022-09-03T19:15:30.912Z,94662.72
2022-09-03T19:18:58.729Z,94658.25
2022-09-03T19:22:07.375Z,94681.25
2022-09-03T19:24:52.726Z,94677.25
2022-09-03T19:27:59.838Z,94670.16
2022-09-03T19:31:07.292Z,94692.03
2022-09-03T19:34:12.760Z,94669.44
2022-09-03T19:37:02.679Z,94674.59
2022-09-03T19:40:13.401Z,94679.06
2022-09-03T19:43:20.895Z,94685.19
2022-09-03T19:46:45.654Z,94680.09
2022-09-03T19:49:52.822Z,94692.44
2022-09-03T19:52:54.757Z,94723.09
2022-09-03T19:55:44.769Z,94715.41
2022-09-03T19:58:43.219Z,94725.19
2022-09-03T20:01:29.835Z,94726.78
2022-09-03T20:04:18.780Z,94728.31
2022-09-03T20:07:04.938Z,94743.69
2022-09-03T20:09:54.818Z,94734.03
2022-09-03T20:12:25.498Z,94734.25
2022-09-03T20:14:52.486Z,94698.75
2022-09-03T20:17:28.728Z,94728.63
2022-09-03T20:20:08.198Z,94707.22
2022-09-03T20:22:44.143Z,94742.78
2022-09-03T20:25:34.214Z,94725.72
2022-09-03T20:28:10.294Z,94729.59
2022-09-03T20:31:17.193Z,94736.91
2022-09-03T20:33:51.537Z,94744.66
2022-09-03T20:36:50.984Z,94740.41
2022-09-03T20:39:21.511Z,94740.31
2022-09-03T20:42:14.618Z,94740.06
2022-09-03T20:44:53.265Z,94736.19
2022-09-03T20:47:36.613Z,94737.00
2022-09-03T20:50:23.841Z,94748.47
2022-09-03T20:52:53.410Z,94734.63
2022-09-03T20:55:24.546Z,94752.25
2022-09-03T20:57:57.271Z,94745.94
2022-09-03T21:00:24.592Z,94764.50
2022-09-03T21:03:14.453Z,94745.72
2022-09-03T21:05:51.686Z,94735.53
2022-09-03T21:08:49.671Z,94760.19
2022-09-03T21:11:28.427Z,94754.72
2022-09-03T21:14:07.250Z,94760.97
2022-09-03T21:17:05.051Z,94760.50
2022-09-03T21:20:00.655Z,94768.22
2022-09-03T21:22:52.840Z,94753.03
2022-09-03T21:25:52.854Z,94732.38
2022-09-03T21:28:38.460Z,94755.00
2022-09-03T21:31:16.002Z,94747.25
2022-09-03T21:33:47.818Z,94742.00
2022-09-03T21:36:22.337Z,94754.63
2022-09-03T21:38:58.733Z,94765.78
2022-09-03T21:41:34.498Z,94759.22
2022-09-03T21:44:16.428Z,94744.47
2022-09-03T21:46:54.112Z,94742.53
2022-09-03T21:49:29.623Z,94766.22
2022-09-03T21:52:06.580Z,94769.25
2022-09-03T21:54:34.842Z,94753.84
2022-09-03T21:57:17.634Z,94763.47
2022-09-03T22:00:24.077Z,94753.44
2022-09-03T22:02:51.104Z,94772.50
2022-09-03T22:05:19.068Z,94763.97
2022-09-03T22:07:55.223Z,94775.63
2022-09-03T22:10:33.947Z,94765.94
2022-09-03T22:13:16.231Z,94764.78
2022-09-03T22:15:50.688Z,94750.31
2022-09-03T22:18:24.036Z,94765.56
2022-09-03T22:21:13.139Z,94765.88
2022-09-03T22:23:55.630Z,94761.25
2022-09-03T22:27:03.284Z,94763.19
2022-09-03T22:29:42.799Z,94771.34
2022-09-03T22:32:28.483Z,94767.53
2022-09-03T22:35:14.216Z,94767.50
2022-09-03T22:38:17.678Z,94760.88
2022-09-03T22:41:12.311Z,94752.28
2022-09-03T22:43:58.839Z,94731.28
2022-09-03T22:46:34.035Z,94759.56
2022-09-03T22:49:38.093Z,94777.66
2022-09-03T22:52:20.673Z,94779.53
2022-09-03T22:55:04.098Z,94770.63
2022-09-03T22:57:35.963Z,94770.25
2022-09-03T23:00:08.284Z,94769.84
2022-09-03T23:02:37.103Z,94750.22
2022-09-03T23:05:27.589Z,94774.53
2022-09-03T23:08:06.237Z,94786.63
2022-09-03T23:10:56.024Z,94776.09
2022-09-03T23:13:30.191Z,94760.31
2022-09-03T23:16:26.250Z,94755.59
2022-09-03T23:18:54.181Z,94772.16
2022-09-03T23:21:26.578Z,94780.28
2022-09-03T23:24:03.235Z,94786.63
2022-09-03T23:26:38.009Z,94769.16
2022-09-03T23:29:40.758Z,94760.22
2022-09-03T23:32:09.430Z,94774.09
2022-09-03T23:34:36.385Z,94771.41
2022-09-03T23:37:39.802Z,94780.34
2022-09-03T23:40:10.075Z,94768.63
2022-09-03T23:42:58.334Z,94774.16
2022-09-03T23:46:00.983Z,94778.44
2022-09-03T23:48:43.212Z,94792.88
2022-09-03T23:51:25.240Z,94782.31
2022-09-03T23:54:06.371Z,94788.50
2022-09-03T23:57:04.348Z,94753.81
2022-09-03T23:59:53.251Z,94781.50
